sensor_id;sensor_type;location;lat;lon;timestamp;pressure;altitude;pressure_sealevel;temperature;humidity
37832;BME280;23671;38.090;-122.570;2023-04-28T00:00:56;101018.72;;;30.71;39.97
37832;BME280;23671;38.090;-122.570;2023-04-28T00:03:23;101020.72;;;30.76;40.10
37832;BME280;23671;38.090;-122.570;2023-04-28T00:05:51;101013.28;;;30.71;40.43
37832;BME280;23671;38.090;-122.570;2023-04-28T00:08:18;101013.03;;;30.73;40.08
37832;BME280;23671;38.090;-122.570;2023-04-28T00:10:47;101014.13;;;30.72;39.94
37832;BME280;23671;38.090;-122.570;2023-04-28T00:13:14;101013.59;;;30.75;40.17
37832;BME280;23671;38.090;-122.570;2023-04-28T00:15:41;101011.38;;;30.72;40.62
37832;BME280;23671;38.090;-122.570;2023-04-28T00:18:08;101013.50;;;30.53;40.87
37832;BME280;23671;38.090;-122.570;2023-04-28T00:20:35;101012.75;;;30.58;40.34
37832;BME280;23671;38.090;-122.570;2023-04-28T00:23:02;101007.06;;;30.59;40.60
37832;BME280;23671;38.090;-122.570;2023-04-28T00:25:29;101007.88;;;30.60;40.49
37832;BME280;23671;38.090;-122.570;2023-04-28T00:27:56;101013.81;;;30.57;40.76
37832;BME280;23671;38.090;-122.570;2023-04-28T00:30:23;101018.63;;;30.66;40.52
37832;BME280;23671;38.090;-122.570;2023-04-28T00:32:50;101008.88;;;30.70;40.35
37832;BME280;23671;38.090;-122.570;2023-04-28T00:35:17;101020.88;;;30.69;40.38
37832;BME280;23671;38.090;-122.570;2023-04-28T00:37:45;101024.66;;;30.68;40.07
37832;BME280;23671;38.090;-122.570;2023-04-28T00:40:12;101028.81;;;30.71;40.20
37832;BME280;23671;38.090;-122.570;2023-04-28T00:42:39;101026.41;;;30.74;40.29
37832;BME280;23671;38.090;-122.570;2023-04-28T00:45:06;101025.03;;;30.72;40.06
37832;BME280;23671;38.090;-122.570;2023-04-28T00:47:40;101023.53;;;30.64;40.16
37832;BME280;23671;38.090;-122.570;2023-04-28T00:50:08;101025.75;;;30.67;40.18
37832;BME280;23671;38.090;-122.570;2023-04-28T00:52:37;101022.25;;;30.55;40.58
37832;BME280;23671;38.090;-122.570;2023-04-28T00:55:05;101020.44;;;30.61;40.49
37832;BME280;23671;38.090;-122.570;2023-04-28T00:57:33;101024.97;;;30.55;40.55
37832;BME280;23671;38.090;-122.570;2023-04-28T01:00:02;101024.72;;;30.57;40.09
37832;BME280;23671;38.090;-122.570;2023-04-28T01:02:29;101031.19;;;30.51;40.31
37832;BME280;23671;38.090;-122.570;2023-04-28T01:04:57;101028.19;;;30.52;40.16
37832;BME280;23671;38.090;-122.570;2023-04-28T01:07:25;101032.31;;;30.55;40.41
37832;BME280;23671;38.090;-122.570;2023-04-28T01:09:52;101032.97;;;30.45;40.25
37832;BME280;23671;38.090;-122.570;2023-04-28T01:12:19;101030.47;;;30.43;40.22
37832;BME280;23671;38.090;-122.570;2023-04-28T01:14:46;101032.53;;;30.36;40.27
37832;BME280;23671;38.090;-122.570;2023-04-28T01:17:14;101028.75;;;30.26;40.46
37832;BME280;23671;38.090;-122.570;2023-04-28T01:19:41;101027.56;;;30.22;40.34
37832;BME280;23671;38.090;-122.570;2023-04-28T01:22:08;101030.06;;;30.23;40.33
37832;BME280;23671;38.090;-122.570;2023-04-28T01:24:41;101030.88;;;30.24;40.31
37832;BME280;23671;38.090;-122.570;2023-04-28T01:27:08;101025.09;;;30.20;40.01
37832;BME280;23671;38.090;-122.570;2023-04-28T01:29:35;101024.75;;;30.17;40.06
37832;BME280;23671;38.090;-122.570;2023-04-28T01:32:02;101031.91;;;30.06;40.03
37832;BME280;23671;38.090;-122.570;2023-04-28T01:34:29;101028.81;;;30.03;39.82
37832;BME280;23671;38.090;-122.570;2023-04-28T01:36:56;101029.91;;;30.02;39.90
37832;BME280;23671;38.090;-122.570;2023-04-28T01:39:23;101027.53;;;29.94;39.66
37832;BME280;23671;38.090;-122.570;2023-04-28T01:41:50;101040.56;;;29.92;39.27
37832;BME280;23671;38.090;-122.570;2023-04-28T01:44:17;101036.31;;;29.84;39.45
37832;BME280;23671;38.090;-122.570;2023-04-28T01:46:44;101042.47;;;29.80;39.20
37832;BME280;23671;38.090;-122.570;2023-04-28T01:49:11;101035.41;;;29.79;39.50
37832;BME280;23671;38.090;-122.570;2023-04-28T01:51:38;101042.88;;;29.72;38.89
37832;BME280;23671;38.090;-122.570;2023-04-28T01:54:07;101040.72;;;29.74;39.15
37832;BME280;23671;38.090;-122.570;2023-04-28T01:56:34;101037.28;;;29.67;38.63
37832;BME280;23671;38.090;-122.570;2023-04-28T01:59:01;101041.44;;;29.57;39.03
37832;BME280;23671;38.090;-122.570;2023-04-28T02:01:28;101045.59;;;29.48;39.28
37832;BME280;23671;38.090;-122.570;2023-04-28T02:03:55;101046.53;;;29.42;38.71
37832;BME280;23671;38.090;-122.570;2023-04-28T02:06:22;101041.28;;;29.41;39.00
37832;BME280;23671;38.090;-122.570;2023-04-28T02:08:49;101045.00;;;29.35;38.78
37832;BME280;23671;38.090;-122.570;2023-04-28T02:11:16;101037.41;;;29.25;38.97
37832;BME280;23671;38.090;-122.570;2023-04-28T02:13:43;101043.41;;;29.27;38.81
37832;BME280;23671;38.090;-122.570;2023-04-28T02:16:10;101045.91;;;29.17;38.79
37832;BME280;23671;38.090;-122.570;2023-04-28T02:18:37;101040.09;;;29.14;38.57
37832;BME280;23671;38.090;-122.570;2023-04-28T02:21:11;101048.44;;;29.01;38.67
37832;BME280;23671;38.090;-122.570;2023-04-28T02:23:39;101050.72;;;29.04;38.59
37832;BME280;23671;38.090;-122.570;2023-04-28T02:26:06;101040.16;;;28.96;38.25
37832;BME280;23671;38.090;-122.570;2023-04-28T02:28:33;101044.66;;;28.90;38.72
37832;BME280;23671;38.090;-122.570;2023-04-28T02:31:11;101053.06;;;28.89;38.21
37832;BME280;23671;38.090;-122.570;2023-04-28T02:33:39;101054.78;;;28.83;38.39
37832;BME280;23671;38.090;-122.570;2023-04-28T02:36:08;101055.75;;;28.77;38.46
37832;BME280;23671;38.090;-122.570;2023-04-28T02:38:36;101057.25;;;28.73;38.11
37832;BME280;23671;38.090;-122.570;2023-04-28T02:41:05;101069.75;;;28.62;38.40
37832;BME280;23671;38.090;-122.570;2023-04-28T02:43:33;101066.66;;;28.59;38.21
37832;BME280;23671;38.090;-122.570;2023-04-28T02:46:02;101076.44;;;28.60;38.18
37832;BME280;23671;38.090;-122.570;2023-04-28T02:48:29;101071.09;;;28.53;38.26
37832;BME280;23671;38.090;-122.570;2023-04-28T02:50:57;101071.66;;;28.44;37.99
37832;BME280;23671;38.090;-122.570;2023-04-28T02:53:24;101068.78;;;28.39;38.27
37832;BME280;23671;38.090;-122.570;2023-04-28T02:55:51;101078.22;;;28.36;38.14
37832;BME280;23671;38.090;-122.570;2023-04-28T02:58:19;101075.88;;;28.22;38.23
37832;BME280;23671;38.090;-122.570;2023-04-28T03:00:46;101082.84;;;28.18;38.29
37832;BME280;23671;38.090;-122.570;2023-04-28T03:03:13;101086.63;;;28.17;37.89
37832;BME280;23671;38.090;-122.570;2023-04-28T03:05:40;101081.84;;;28.12;37.70
37832;BME280;23671;38.090;-122.570;2023-04-28T03:08:07;101086.78;;;28.04;37.73
37832;BME280;23671;38.090;-122.570;2023-04-28T03:10:34;101091.03;;;27.93;37.82
37832;BME280;23671;38.090;-122.570;2023-04-28T03:13:02;101100.00;;;27.94;37.79
37832;BME280;23671;38.090;-122.570;2023-04-28T03:15:29;101095.00;;;27.91;37.76
37832;BME280;23671;38.090;-122.570;2023-04-28T03:17:56;101102.41;;;27.83;37.63
37832;BME280;23671;38.090;-122.570;2023-04-28T03:20:23;101107.09;;;27.76;37.59
37832;BME280;23671;38.090;-122.570;2023-04-28T03:22:50;101109.84;;;27.70;37.49
37832;BME280;23671;38.090;-122.570;2023-04-28T03:25:17;101111.59;;;27.64;37.48
37832;BME280;23671;38.090;-122.570;2023-04-28T03:27:44;101117.50;;;27.55;37.77
37832;BME280;23671;38.090;-122.570;2023-04-28T03:30:11;101116.56;;;27.43;37.73
37832;BME280;23671;38.090;-122.570;2023-04-28T03:32:39;101117.81;;;27.40;37.61
37832;BME280;23671;38.090;-122.570;2023-04-28T03:35:06;101121.47;;;27.34;37.45
37832;BME280;23671;38.090;-122.570;2023-04-28T03:37:33;101123.19;;;27.22;37.66
37832;BME280;23671;38.090;-122.570;2023-04-28T03:40:00;101130.09;;;27.18;37.54
37832;BME280;23671;38.090;-122.570;2023-04-28T03:42:28;101134.50;;;27.13;37.83
37832;BME280;23671;38.090;-122.570;2023-04-28T03:44:55;101138.94;;;27.07;37.82
37832;BME280;23671;38.090;-122.570;2023-04-28T03:47:22;101143.38;;;26.95;38.12
37832;BME280;23671;38.090;-122.570;2023-04-28T03:49:49;101138.22;;;26.87;38.12
37832;BME280;23671;38.090;-122.570;2023-04-28T03:52:17;101142.84;;;26.80;38.07
37832;BME280;23671;38.090;-122.570;2023-04-28T03:54:44;101147.03;;;26.69;38.27
37832;BME280;23671;38.090;-122.570;2023-04-28T03:57:11;101148.31;;;26.67;38.09
37832;BME280;23671;38.090;-122.570;2023-04-28T03:59:38;101150.41;;;26.58;37.97
37832;BME280;23671;38.090;-122.570;2023-04-28T04:02:05;101152.97;;;26.47;38.11
37832;BME280;23671;38.090;-122.570;2023-04-28T04:04:32;101151.28;;;26.46;38.22
37832;BME280;23671;38.090;-122.570;2023-04-28T04:07:00;101165.72;;;26.40;37.96
37832;BME280;23671;38.090;-122.570;2023-04-28T04:09:27;101173.41;;;26.36;38.20
37832;BME280;23671;38.090;-122.570;2023-04-28T04:11:54;101166.59;;;26.21;37.99
37832;BME280;23671;38.090;-122.570;2023-04-28T04:14:21;101168.06;;;26.17;38.17
37832;BME280;23671;38.090;-122.570;2023-04-28T04:16:48;101179.13;;;26.08;38.36
37832;BME280;23671;38.090;-122.570;2023-04-28T04:19:15;101183.88;;;26.00;38.36
37832;BME280;23671;38.090;-122.570;2023-04-28T04:21:42;101178.28;;;25.95;38.56
37832;BME280;23671;38.090;-122.570;2023-04-28T04:24:09;101180.97;;;25.88;38.49
37832;BME280;23671;38.090;-122.570;2023-04-28T04:26:37;101187.88;;;25.78;38.43
37832;BME280;23671;38.090;-122.570;2023-04-28T04:29:04;101191.81;;;25.75;38.63
37832;BME280;23671;38.090;-122.570;2023-04-28T04:31:31;101187.66;;;25.66;38.31
37832;BME280;23671;38.090;-122.570;2023-04-28T04:33:58;101186.41;;;25.62;38.41
37832;BME280;23671;38.090;-122.570;2023-04-28T04:36:25;101188.47;;;25.54;38.70
37832;BME280;23671;38.090;-122.570;2023-04-28T04:38:52;101191.19;;;25.47;38.80
37832;BME280;23671;38.090;-122.570;2023-04-28T04:41:19;101188.22;;;25.36;38.27
37832;BME280;23671;38.090;-122.570;2023-04-28T04:43:46;101190.72;;;25.24;37.94
37832;BME280;23671;38.090;-122.570;2023-04-28T04:46:14;101194.41;;;25.10;38.07
37832;BME280;23671;38.090;-122.570;2023-04-28T04:48:41;101194.56;;;24.95;38.15
37832;BME280;23671;38.090;-122.570;2023-04-28T04:51:08;101193.31;;;24.91;38.30
37832;BME280;23671;38.090;-122.570;2023-04-28T04:53:35;101195.34;;;24.83;38.25
37832;BME280;23671;38.090;-122.570;2023-04-28T04:56:03;101185.97;;;24.72;38.43
37832;BME280;23671;38.090;-122.570;2023-04-28T04:58:30;101184.44;;;24.63;38.46
37832;BME280;23671;38.090;-122.570;2023-04-28T05:00:57;101189.81;;;24.57;38.33
37832;BME280;23671;38.090;-122.570;2023-04-28T05:03:24;101191.22;;;24.46;38.63
37832;BME280;23671;38.090;-122.570;2023-04-28T05:05:52;101189.91;;;24.35;38.71
37832;BME280;23671;38.090;-122.570;2023-04-28T05:08:19;101184.91;;;24.32;38.59
37832;BME280;23671;38.090;-122.570;2023-04-28T05:10:46;101189.25;;;24.27;38.57
37832;BME280;23671;38.090;-122.570;2023-04-28T05:13:13;101199.19;;;24.20;38.58
37832;BME280;23671;38.090;-122.570;2023-04-28T05:15:40;101190.63;;;24.16;38.62
37832;BME280;23671;38.090;-122.570;2023-04-28T05:18:08;101191.81;;;24.07;38.50
37832;BME280;23671;38.090;-122.570;2023-04-28T05:20:37;101194.81;;;23.98;38.69
37832;BME280;23671;38.090;-122.570;2023-04-28T05:23:04;101189.38;;;23.91;38.82
37832;BME280;23671;38.090;-122.570;2023-04-28T05:25:31;101187.84;;;23.82;38.95
37832;BME280;23671;38.090;-122.570;2023-04-28T05:27:58;101183.00;;;23.71;39.04
37832;BME280;23671;38.090;-122.570;2023-04-28T05:30:30;101181.72;;;23.67;38.95
37832;BME280;23671;38.090;-122.570;2023-04-28T05:32:57;101182.06;;;23.58;39.27
37832;BME280;23671;38.090;-122.570;2023-04-28T05:35:24;101182.19;;;23.50;39.20
37832;BME280;23671;38.090;-122.570;2023-04-28T05:37:51;101180.59;;;23.34;39.48
37832;BME280;23671;38.090;-122.570;2023-04-28T05:40:18;101173.88;;;23.30;39.47
37832;BME280;23671;38.090;-122.570;2023-04-28T05:42:45;101178.00;;;23.26;39.51
37832;BME280;23671;38.090;-122.570;2023-04-28T05:45:12;101173.75;;;23.17;39.58
37832;BME280;23671;38.090;-122.570;2023-04-28T05:47:40;101173.22;;;23.07;39.74
37832;BME280;23671;38.090;-122.570;2023-04-28T05:50:08;101181.44;;;22.99;39.84
37832;BME280;23671;38.090;-122.570;2023-04-28T05:52:35;101179.88;;;22.90;39.95
37832;BME280;23671;38.090;-122.570;2023-04-28T05:55:02;101181.28;;;22.86;39.95
37832;BME280;23671;38.090;-122.570;2023-04-28T05:57:29;101175.00;;;22.79;40.14
37832;BME280;23671;38.090;-122.570;2023-04-28T05:59:56;101174.06;;;22.72;40.17
37832;BME280;23671;38.090;-122.570;2023-04-28T06:02:23;101171.50;;;22.64;40.18
37832;BME280;23671;38.090;-122.570;2023-04-28T06:04:50;101183.66;;;22.60;40.15
37832;BME280;23671;38.090;-122.570;2023-04-28T06:07:17;101175.47;;;22.53;40.21
37832;BME280;23671;38.090;-122.570;2023-04-28T06:09:44;101170.63;;;22.48;40.24
37832;BME280;23671;38.090;-122.570;2023-04-28T06:12:11;101176.78;;;22.42;40.32
37832;BME280;23671;38.090;-122.570;2023-04-28T06:14:39;101179.78;;;22.33;40.46
37832;BME280;23671;38.090;-122.570;2023-04-28T06:17:07;101169.09;;;22.25;40.62
37832;BME280;23671;38.090;-122.570;2023-04-28T06:19:34;101177.31;;;22.23;40.51
37832;BME280;23671;38.090;-122.570;2023-04-28T06:22:01;101178.09;;;22.17;40.50
37832;BME280;23671;38.090;-122.570;2023-04-28T06:24:28;101174.25;;;22.12;40.63
37832;BME280;23671;38.090;-122.570;2023-04-28T06:26:55;101180.22;;;22.07;40.60
37832;BME280;23671;38.090;-122.570;2023-04-28T06:29:23;101184.03;;;21.98;40.81
37832;BME280;23671;38.090;-122.570;2023-04-28T06:31:50;101181.22;;;21.92;40.78
37832;BME280;23671;38.090;-122.570;2023-04-28T06:34:17;101175.06;;;21.83;40.89
37832;BME280;23671;38.090;-122.570;2023-04-28T06:36:44;101182.81;;;21.78;40.95
37832;BME280;23671;38.090;-122.570;2023-04-28T06:39:11;101184.22;;;21.74;41.12
37832;BME280;23671;38.090;-122.570;2023-04-28T06:41:38;101183.44;;;21.65;41.19
37832;BME280;23671;38.090;-122.570;2023-04-28T06:44:06;101188.53;;;21.60;41.13
37832;BME280;23671;38.090;-122.570;2023-04-28T06:46:33;101181.84;;;21.56;41.25
37832;BME280;23671;38.090;-122.570;2023-04-28T06:49:02;101187.13;;;21.50;41.13
37832;BME280;23671;38.090;-122.570;2023-04-28T06:51:30;101179.78;;;21.44;41.30
37832;BME280;23671;38.090;-122.570;2023-04-28T06:53:58;101182.16;;;21.39;41.37
37832;BME280;23671;38.090;-122.570;2023-04-28T06:56:25;101177.69;;;21.31;41.48
37832;BME280;23671;38.090;-122.570;2023-04-28T06:58:55;101171.38;;;21.24;41.51
37832;BME280;23671;38.090;-122.570;2023-04-28T07:01:25;101168.72;;;21.16;41.67
37832;BME280;23671;38.090;-122.570;2023-04-28T07:03:52;101150.81;;;21.09;41.67
37832;BME280;23671;38.090;-122.570;2023-04-28T07:06:19;101161.94;;;21.06;41.80
37832;BME280;23671;38.090;-122.570;2023-04-28T07:08:46;101156.25;;;21.01;41.75
37832;BME280;23671;38.090;-122.570;2023-04-28T07:11:13;101166.47;;;20.97;41.72
37832;BME280;23671;38.090;-122.570;2023-04-28T07:13:41;101162.00;;;20.90;41.91
37832;BME280;23671;38.090;-122.570;2023-04-28T07:16:08;101170.56;;;20.85;41.78
37832;BME280;23671;38.090;-122.570;2023-04-28T07:18:36;101170.47;;;20.78;41.92
37832;BME280;23671;38.090;-122.570;2023-04-28T07:21:03;101171.97;;;20.73;41.99
37832;BME280;23671;38.090;-122.570;2023-04-28T07:23:30;101175.19;;;20.68;41.96
37832;BME280;23671;38.090;-122.570;2023-04-28T07:25:57;101174.56;;;20.58;42.23
37832;BME280;23671;38.090;-122.570;2023-04-28T07:28:25;101173.25;;;20.54;42.23
37832;BME280;23671;38.090;-122.570;2023-04-28T07:30:52;101175.63;;;20.49;42.17
37832;BME280;23671;38.090;-122.570;2023-04-28T07:33:19;101177.31;;;20.42;42.45
37832;BME280;23671;38.090;-122.570;2023-04-28T07:35:46;101178.66;;;20.38;42.56
37832;BME280;23671;38.090;-122.570;2023-04-28T07:38:13;101178.38;;;20.33;42.33
37832;BME280;23671;38.090;-122.570;2023-04-28T07:40:42;101171.84;;;20.28;42.43
37832;BME280;23671;38.090;-122.570;2023-04-28T07:43:09;101173.38;;;20.22;42.55
37832;BME280;23671;38.090;-122.570;2023-04-28T07:45:38;101179.41;;;20.16;42.51
37832;BME280;23671;38.090;-122.570;2023-04-28T07:48:05;101179.22;;;20.10;42.67
37832;BME280;23671;38.090;-122.570;2023-04-28T07:50:33;101186.59;;;20.08;42.79
37832;BME280;23671;38.090;-122.570;2023-04-28T07:53:00;101194.69;;;20.00;42.62
37832;BME280;23671;38.090;-122.570;2023-04-28T07:55:27;101196.72;;;19.98;42.79
37832;BME280;23671;38.090;-122.570;2023-04-28T07:57:54;101193.69;;;19.92;42.85
37832;BME280;23671;38.090;-122.570;2023-04-28T08:00:24;101199.22;;;19.91;42.91
37832;BME280;23671;38.090;-122.570;2023-04-28T08:02:51;101199.88;;;19.85;42.79
37832;BME280;23671;38.090;-122.570;2023-04-28T08:05:18;101200.56;;;19.79;42.73
37832;BME280;23671;38.090;-122.570;2023-04-28T08:07:45;101198.72;;;19.71;42.89
37832;BME280;23671;38.090;-122.570;2023-04-28T08:10:12;101205.44;;;19.67;42.98
37832;BME280;23671;38.090;-122.570;2023-04-28T08:12:39;101205.97;;;19.63;42.92
37832;BME280;23671;38.090;-122.570;2023-04-28T08:15:08;101200.75;;;19.61;43.03
37832;BME280;23671;38.090;-122.570;2023-04-28T08:17:35;101195.91;;;19.57;43.17
37832;BME280;23671;38.090;-122.570;2023-04-28T08:20:02;101188.72;;;19.49;43.18
37832;BME280;23671;38.090;-122.570;2023-04-28T08:22:31;101193.88;;;19.51;43.03
37832;BME280;23671;38.090;-122.570;2023-04-28T08:24:58;101190.03;;;19.45;43.16
37832;BME280;23671;38.090;-122.570;2023-04-28T08:27:25;101183.66;;;19.38;43.24
37832;BME280;23671;38.090;-122.570;2023-04-28T08:29:52;101189.53;;;19.34;43.15
37832;BME280;23671;38.090;-122.570;2023-04-28T08:32:19;101187.13;;;19.31;43.25
37832;BME280;23671;38.090;-122.570;2023-04-28T08:34:46;101187.13;;;19.31;43.19
37832;BME280;23671;38.090;-122.570;2023-04-28T08:37:13;101183.13;;;19.27;43.32
37832;BME280;23671;38.090;-122.570;2023-04-28T08:39:40;101193.16;;;19.25;43.30
37832;BME280;23671;38.090;-122.570;2023-04-28T08:42:08;101183.13;;;19.27;43.02
37832;BME280;23671;38.090;-122.570;2023-04-28T08:44:39;101186.44;;;19.21;43.19
37832;BME280;23671;38.090;-122.570;2023-04-28T08:47:13;101183.13;;;19.19;42.96
37832;BME280;23671;38.090;-122.570;2023-04-28T08:49:41;101184.78;;;19.12;43.26
37832;BME280;23671;38.090;-122.570;2023-04-28T08:52:16;101183.44;;;19.16;42.98
37832;BME280;23671;38.090;-122.570;2023-04-28T08:54:45;101174.91;;;19.12;43.08
37832;BME280;23671;38.090;-122.570;2023-04-28T08:57:13;101183.94;;;19.11;42.93
37832;BME280;23671;38.090;-122.570;2023-04-28T08:59:40;101183.59;;;19.06;43.00
37832;BME280;23671;38.090;-122.570;2023-04-28T09:02:08;101175.72;;;19.04;43.08
37832;BME280;23671;38.090;-122.570;2023-04-28T09:04:35;101179.25;;;18.97;43.14
37832;BME280;23671;38.090;-122.570;2023-04-28T09:07:02;101178.59;;;19.03;42.80
37832;BME280;23671;38.090;-122.570;2023-04-28T09:09:30;101176.38;;;18.98;42.89
37832;BME280;23671;38.090;-122.570;2023-04-28T09:11:59;101175.84;;;18.87;43.07
37832;BME280;23671;38.090;-122.570;2023-04-28T09:14:28;101170.34;;;18.88;42.96
37832;BME280;23671;38.090;-122.570;2023-04-28T09:16:55;101172.31;;;18.78;43.00
37832;BME280;23671;38.090;-122.570;2023-04-28T09:19:23;101165.47;;;18.76;43.04
37832;BME280;23671;38.090;-122.570;2023-04-28T09:21:55;101168.47;;;18.73;43.21
37832;BME280;23671;38.090;-122.570;2023-04-28T09:26:58;101159.72;;;18.63;43.16
37832;BME280;23671;38.090;-122.570;2023-04-28T09:29:25;101170.09;;;18.58;43.21
37832;BME280;23671;38.090;-122.570;2023-04-28T09:31:53;101169.25;;;18.57;43.15
37832;BME280;23671;38.090;-122.570;2023-04-28T09:34:23;101163.84;;;18.49;43.24
37832;BME280;23671;38.090;-122.570;2023-04-28T09:36:50;101170.69;;;18.44;43.38
37832;BME280;23671;38.090;-122.570;2023-04-28T09:39:29;101165.81;;;18.39;43.40
37832;BME280;23671;38.090;-122.570;2023-04-28T09:41:56;101163.28;;;18.38;43.34
37832;BME280;23671;38.090;-122.570;2023-04-28T09:44:28;101169.13;;;18.33;43.41
37832;BME280;23671;38.090;-122.570;2023-04-28T09:46:55;101173.78;;;18.31;43.46
37832;BME280;23671;38.090;-122.570;2023-04-28T09:49:22;101180.28;;;18.29;43.46
37832;BME280;23671;38.090;-122.570;2023-04-28T09:51:49;101180.09;;;18.22;43.37
37832;BME280;23671;38.090;-122.570;2023-04-28T09:54:17;101182.09;;;18.20;43.47
37832;BME280;23671;38.090;-122.570;2023-04-28T09:56:48;101177.53;;;18.12;43.48
37832;BME280;23671;38.090;-122.570;2023-04-28T09:59:15;101181.81;;;18.05;43.54
37832;BME280;23671;38.090;-122.570;2023-04-28T10:01:43;101185.50;;;18.04;43.71
37832;BME280;23671;38.090;-122.570;2023-04-28T10:04:14;101177.94;;;18.00;43.76
37832;BME280;23671;38.090;-122.570;2023-04-28T10:06:41;101175.59;;;17.97;43.67
37832;BME280;23671;38.090;-122.570;2023-04-28T10:09:11;101178.41;;;17.95;43.58
37832;BME280;23671;38.090;-122.570;2023-04-28T10:11:39;101190.91;;;17.87;43.50
37832;BME280;23671;38.090;-122.570;2023-04-28T10:14:06;101182.38;;;17.83;44.34
37832;BME280;23671;38.090;-122.570;2023-04-28T10:16:33;101180.84;;;17.81;43.74
37832;BME280;23671;38.090;-122.570;2023-04-28T10:19:01;101185.34;;;17.80;43.86
37832;BME280;23671;38.090;-122.570;2023-04-28T10:21:29;101181.16;;;17.78;43.85
37832;BME280;23671;38.090;-122.570;2023-04-28T10:24:20;101180.16;;;17.79;43.84
37832;BME280;23671;38.090;-122.570;2023-04-28T10:29:30;101175.44;;;17.73;43.48
37832;BME280;23671;38.090;-122.570;2023-04-28T10:32:18;101181.91;;;17.70;43.52
37832;BME280;23671;38.090;-122.570;2023-04-28T10:34:45;101182.56;;;17.64;43.98
37832;BME280;23671;38.090;-122.570;2023-04-28T10:37:14;101181.03;;;17.62;43.89
37832;BME280;23671;38.090;-122.570;2023-04-28T10:40:49;101189.34;;;17.59;43.88
37832;BME280;23671;38.090;-122.570;2023-04-28T10:42:56;101186.66;;;17.59;43.65
37832;BME280;23671;38.090;-122.570;2023-04-28T10:56:21;101198.50;;;17.39;43.80
37832;BME280;23671;38.090;-122.570;2023-04-28T10:58:55;101193.44;;;17.36;43.85
37832;BME280;23671;38.090;-122.570;2023-04-28T11:04:04;101184.09;;;17.32;43.86
37832;BME280;23671;38.090;-122.570;2023-04-28T11:06:45;101193.06;;;17.31;43.56
37832;BME280;23671;38.090;-122.570;2023-04-28T11:12:04;101190.66;;;17.19;43.68
37832;BME280;23671;38.090;-122.570;2023-04-28T11:14:36;101190.81;;;17.18;43.73
37832;BME280;23671;38.090;-122.570;2023-04-28T11:17:09;101193.59;;;17.16;43.84
37832;BME280;23671;38.090;-122.570;2023-04-28T11:19:45;101191.69;;;17.09;44.15
37832;BME280;23671;38.090;-122.570;2023-04-28T11:22:23;101194.53;;;17.07;43.96
37832;BME280;23671;38.090;-122.570;2023-04-28T11:25:00;101201.00;;;17.05;44.14
37832;BME280;23671;38.090;-122.570;2023-04-28T11:27:29;101195.66;;;17.05;43.95
37832;BME280;23671;38.090;-122.570;2023-04-28T11:29:57;101187.28;;;17.00;44.28
37832;BME280;23671;38.090;-122.570;2023-04-28T11:32:34;101189.56;;;16.95;44.33
37832;BME280;23671;38.090;-122.570;2023-04-28T11:35:02;101196.03;;;16.92;43.93
37832;BME280;23671;38.090;-122.570;2023-04-28T11:37:30;101195.94;;;16.84;44.13
37832;BME280;23671;38.090;-122.570;2023-04-28T11:39:57;101197.59;;;16.85;44.44
37832;BME280;23671;38.090;-122.570;2023-04-28T11:42:24;101201.59;;;16.81;44.20
37832;BME280;23671;38.090;-122.570;2023-04-28T11:44:53;101208.22;;;16.77;44.48
37832;BME280;23671;38.090;-122.570;2023-04-28T11:47:30;101214.13;;;16.71;44.32
37832;BME280;23671;38.090;-122.570;2023-04-28T11:49:58;101216.09;;;16.69;44.38
37832;BME280;23671;38.090;-122.570;2023-04-28T11:52:26;101216.00;;;16.61;44.79
37832;BME280;23671;38.090;-122.570;2023-04-28T11:54:57;101215.00;;;16.62;44.25
37832;BME280;23671;38.090;-122.570;2023-04-28T11:57:26;101219.41;;;16.54;44.34
37832;BME280;23671;38.090;-122.570;2023-04-28T12:00:10;101212.25;;;16.54;44.73
37832;BME280;23671;38.090;-122.570;2023-04-28T12:02:37;101220.38;;;16.53;44.46
37832;BME280;23671;38.090;-122.570;2023-04-28T12:05:08;101216.75;;;16.54;44.55
37832;BME280;23671;38.090;-122.570;2023-04-28T12:07:43;101216.19;;;16.50;44.46
37832;BME280;23671;38.090;-122.570;2023-04-28T12:10:12;101227.94;;;16.48;44.37
37832;BME280;23671;38.090;-122.570;2023-04-28T12:12:41;101232.91;;;16.43;44.38
37832;BME280;23671;38.090;-122.570;2023-04-28T12:15:09;101230.34;;;16.41;44.39
37832;BME280;23671;38.090;-122.570;2023-04-28T12:17:39;101227.59;;;16.33;44.58
37832;BME280;23671;38.090;-122.570;2023-04-28T12:20:08;101228.03;;;16.28;44.65
37832;BME280;23671;38.090;-122.570;2023-04-28T12:22:47;101242.31;;;16.27;44.75
37832;BME280;23671;38.090;-122.570;2023-04-28T12:25:16;101240.38;;;16.20;44.90
37832;BME280;23671;38.090;-122.570;2023-04-28T12:27:59;101241.66;;;16.16;45.06
37832;BME280;23671;38.090;-122.570;2023-04-28T12:30:37;101234.50;;;16.16;44.63
37832;BME280;23671;38.090;-122.570;2023-04-28T12:33:23;101237.63;;;16.12;44.98
37832;BME280;23671;38.090;-122.570;2023-04-28T12:35:51;101236.22;;;16.08;45.11
37832;BME280;23671;38.090;-122.570;2023-04-28T12:38:20;101238.19;;;16.06;44.86
37832;BME280;23671;38.090;-122.570;2023-04-28T12:40:47;101243.63;;;16.04;44.96
37832;BME280;23671;38.090;-122.570;2023-04-28T12:43:14;101242.97;;;16.02;44.79
37832;BME280;23671;38.090;-122.570;2023-04-28T12:45:41;101239.03;;;15.97;44.92
37832;BME280;23671;38.090;-122.570;2023-04-28T12:48:08;101240.44;;;15.91;45.04